sensor_id;sensor_type;location;lat;lon;timestamp;P1;durP1;ratioP1;P2;durP2;ratioP2
23680;SDS011;62915;50.832;4.462;2023-04-24T00:00:10;24.60;;;15.38;;
23680;SDS011;62915;50.832;4.462;2023-04-24T00:02:42;21.58;;;14.77;;
23680;SDS011;62915;50.832;4.462;2023-04-24T00:05:13;26.58;;;15.40;;
23680;SDS011;62915;50.832;4.462;2023-04-24T00:07:40;25.95;;;15.57;;
23680;SDS011;62915;50.832;4.462;2023-04-24T00:10:06;22.85;;;14.32;;
23680;SDS011;62915;50.832;4.462;2023-04-24T00:12:33;27.00;;;14.02;;
23680;SDS011;62915;50.832;4.462;2023-04-24T00:14:59;26.42;;;14.65;;
23680;SDS011;62915;50.832;4.462;2023-04-24T00:17:25;23.52;;;14.38;;
23680;SDS011;62915;50.832;4.462;2023-04-24T00:19:51;24.63;;;14.57;;
23680;SDS011;62915;50.832;4.462;2023-04-24T00:22:23;22.88;;;14.73;;
23680;SDS011;62915;50.832;4.462;2023-04-24T00:24:49;26.58;;;15.32;;
23680;SDS011;62915;50.832;4.462;2023-04-24T00:27:15;25.17;;;15.07;;
23680;SDS011;62915;50.832;4.462;2023-04-24T00:29:41;28.50;;;14.65;;
23680;SDS011;62915;50.832;4.462;2023-04-24T00:32:07;27.27;;;14.57;;
23680;SDS011;62915;50.832;4.462;2023-04-24T00:34:32;27.40;;;14.88;;
23680;SDS011;62915;50.832;4.462;2023-04-24T00:36:58;26.63;;;13.95;;
23680;SDS011;62915;50.832;4.462;2023-04-24T00:39:24;18.33;;;13.65;;
23680;SDS011;62915;50.832;4.462;2023-04-24T00:41:51;24.80;;;14.75;;
23680;SDS011;62915;50.832;4.462;2023-04-24T00:44:17;19.63;;;13.93;;
23680;SDS011;62915;50.832;4.462;2023-04-24T00:46:43;21.27;;;14.73;;
23680;SDS011;62915;50.832;4.462;2023-04-24T00:49:09;20.75;;;14.57;;
23680;SDS011;62915;50.832;4.462;2023-04-24T00:51:35;24.48;;;14.63;;
23680;SDS011;62915;50.832;4.462;2023-04-24T00:54:01;25.83;;;15.45;;
23680;SDS011;62915;50.832;4.462;2023-04-24T00:56:27;20.83;;;14.35;;
23680;SDS011;62915;50.832;4.462;2023-04-24T00:58:54;22.52;;;14.48;;
23680;SDS011;62915;50.832;4.462;2023-04-24T01:01:21;20.65;;;14.25;;
23680;SDS011;62915;50.832;4.462;2023-04-24T01:03:48;25.55;;;15.40;;
23680;SDS011;62915;50.832;4.462;2023-04-24T01:06:16;24.45;;;15.27;;
23680;SDS011;62915;50.832;4.462;2023-04-24T01:08:43;22.42;;;14.48;;
23680;SDS011;62915;50.832;4.462;2023-04-24T01:11:11;24.23;;;15.52;;
23680;SDS011;62915;50.832;4.462;2023-04-24T01:13:37;23.27;;;14.65;;
23680;SDS011;62915;50.832;4.462;2023-04-24T01:16:02;26.08;;;14.55;;
23680;SDS011;62915;50.832;4.462;2023-04-24T01:18:28;24.83;;;15.15;;
23680;SDS011;62915;50.832;4.462;2023-04-24T01:20:57;19.85;;;14.60;;
23680;SDS011;62915;50.832;4.462;2023-04-24T01:23:25;25.40;;;15.38;;
23680;SDS011;62915;50.832;4.462;2023-04-24T01:25:52;19.98;;;13.77;;
23680;SDS011;62915;50.832;4.462;2023-04-24T01:28:18;19.33;;;14.68;;
23680;SDS011;62915;50.832;4.462;2023-04-24T01:30:44;22.13;;;13.38;;
23680;SDS011;62915;50.832;4.462;2023-04-24T01:33:10;22.95;;;14.63;;
23680;SDS011;62915;50.832;4.462;2023-04-24T01:35:37;23.63;;;14.25;;
23680;SDS011;62915;50.832;4.462;2023-04-24T01:38:03;20.23;;;13.13;;
23680;SDS011;62915;50.832;4.462;2023-04-24T01:40:29;20.13;;;12.88;;
23680;SDS011;62915;50.832;4.462;2023-04-24T01:42:56;17.73;;;13.80;;
23680;SDS011;62915;50.832;4.462;2023-04-24T01:45:23;22.85;;;12.77;;
23680;SDS011;62915;50.832;4.462;2023-04-24T01:47:48;20.00;;;12.77;;
23680;SDS011;62915;50.832;4.462;2023-04-24T01:50:15;17.05;;;13.05;;
23680;SDS011;62915;50.832;4.462;2023-04-24T01:52:41;18.83;;;12.65;;
23680;SDS011;62915;50.832;4.462;2023-04-24T01:55:07;18.00;;;13.02;;
23680;SDS011;62915;50.832;4.462;2023-04-24T01:57:33;22.33;;;13.57;;
23680;SDS011;62915;50.832;4.462;2023-04-24T02:00:00;21.23;;;13.55;;
23680;SDS011;62915;50.832;4.462;2023-04-24T02:02:26;19.10;;;13.50;;
23680;SDS011;62915;50.832;4.462;2023-04-24T02:04:55;19.77;;;14.30;;
23680;SDS011;62915;50.832;4.462;2023-04-24T02:07:21;20.90;;;15.38;;
23680;SDS011;62915;50.832;4.462;2023-04-24T02:09:46;20.98;;;15.38;;
23680;SDS011;62915;50.832;4.462;2023-04-24T02:12:12;22.40;;;14.90;;
23680;SDS011;62915;50.832;4.462;2023-04-24T02:14:40;23.85;;;15.68;;
23680;SDS011;62915;50.832;4.462;2023-04-24T02:17:08;28.42;;;15.88;;
23680;SDS011;62915;50.832;4.462;2023-04-24T02:19:34;21.95;;;16.15;;
23680;SDS011;62915;50.832;4.462;2023-04-24T02:22:00;27.90;;;16.23;;
23680;SDS011;62915;50.832;4.462;2023-04-24T02:24:26;28.90;;;16.55;;
23680;SDS011;62915;50.832;4.462;2023-04-24T02:26:52;27.38;;;16.90;;
23680;SDS011;62915;50.832;4.462;2023-04-24T02:29:18;24.60;;;17.23;;
23680;SDS011;62915;50.832;4.462;2023-04-24T02:31:43;23.50;;;16.50;;
23680;SDS011;62915;50.832;4.462;2023-04-24T02:34:09;24.50;;;16.35;;
23680;SDS011;62915;50.832;4.462;2023-04-24T02:36:35;23.50;;;17.25;;
23680;SDS011;62915;50.832;4.462;2023-04-24T02:39:01;23.80;;;16.80;;
23680;SDS011;62915;50.832;4.462;2023-04-24T02:41:27;25.52;;;16.73;;
23680;SDS011;62915;50.832;4.462;2023-04-24T02:43:57;21.40;;;16.08;;
23680;SDS011;62915;50.832;4.462;2023-04-24T02:46:24;19.70;;;15.30;;
23680;SDS011;62915;50.832;4.462;2023-04-24T02:48:51;23.42;;;15.52;;
23680;SDS011;62915;50.832;4.462;2023-04-24T02:51:16;20.85;;;15.57;;
23680;SDS011;62915;50.832;4.462;2023-04-24T02:53:42;20.05;;;14.75;;
23680;SDS011;62915;50.832;4.462;2023-04-24T02:56:08;21.45;;;13.85;;
23680;SDS011;62915;50.832;4.462;2023-04-24T02:58:37;18.60;;;13.13;;
23680;SDS011;62915;50.832;4.462;2023-04-24T03:01:03;18.13;;;12.75;;
23680;SDS011;62915;50.832;4.462;2023-04-24T03:03:29;22.73;;;13.70;;
23680;SDS011;62915;50.832;4.462;2023-04-24T03:05:55;20.25;;;14.73;;
23680;SDS011;62915;50.832;4.462;2023-04-24T03:08:22;18.00;;;13.38;;
23680;SDS011;62915;50.832;4.462;2023-04-24T03:10:48;20.50;;;13.68;;
23680;SDS011;62915;50.832;4.462;2023-04-24T03:13:15;18.70;;;11.40;;
23680;SDS011;62915;50.832;4.462;2023-04-24T03:15:41;20.25;;;12.00;;
23680;SDS011;62915;50.832;4.462;2023-04-24T03:18:07;15.00;;;11.25;;
23680;SDS011;62915;50.832;4.462;2023-04-24T03:20:33;20.55;;;11.95;;
23680;SDS011;62915;50.832;4.462;2023-04-24T03:22:59;15.88;;;10.75;;
23680;SDS011;62915;50.832;4.462;2023-04-24T03:25:24;14.45;;;10.02;;
23680;SDS011;62915;50.832;4.462;2023-04-24T03:27:50;18.35;;;11.05;;
23680;SDS011;62915;50.832;4.462;2023-04-24T03:30:16;15.20;;;9.90;;
23680;SDS011;62915;50.832;4.462;2023-04-24T03:32:42;13.02;;;10.35;;
23680;SDS011;62915;50.832;4.462;2023-04-24T03:35:08;18.75;;;11.18;;
23680;SDS011;62915;50.832;4.462;2023-04-24T03:37:34;14.18;;;11.35;;
23680;SDS011;62915;50.832;4.462;2023-04-24T03:40:00;12.32;;;10.38;;
23680;SDS011;62915;50.832;4.462;2023-04-24T03:42:26;16.55;;;11.00;;
23680;SDS011;62915;50.832;4.462;2023-04-24T03:44:52;15.05;;;11.13;;
23680;SDS011;62915;50.832;4.462;2023-04-24T03:47:18;15.43;;;10.82;;
23680;SDS011;62915;50.832;4.462;2023-04-24T03:49:44;16.67;;;10.40;;
23680;SDS011;62915;50.832;4.462;2023-04-24T03:52:10;18.35;;;11.35;;
23680;SDS011;62915;50.832;4.462;2023-04-24T03:54:36;14.18;;;10.20;;
23680;SDS011;62915;50.832;4.462;2023-04-24T03:57:02;13.25;;;10.07;;
23680;SDS011;62915;50.832;4.462;2023-04-24T03:59:29;14.90;;;10.77;;
23680;SDS011;62915;50.832;4.462;2023-04-24T04:01:55;12.50;;;9.55;;
23680;SDS011;62915;50.832;4.462;2023-04-24T04:04:21;17.75;;;9.05;;
23680;SDS011;62915;50.832;4.462;2023-04-24T04:06:47;13.85;;;8.55;;
23680;SDS011;62915;50.832;4.462;2023-04-24T04:09:14;11.55;;;8.35;;
23680;SDS011;62915;50.832;4.462;2023-04-24T04:11:40;9.52;;;8.07;;
23680;SDS011;62915;50.832;4.462;2023-04-24T04:14:05;11.90;;;8.50;;
23680;SDS011;62915;50.832;4.462;2023-04-24T04:16:31;11.75;;;8.10;;
23680;SDS011;62915;50.832;4.462;2023-04-24T04:18:57;8.82;;;7.35;;
23680;SDS011;62915;50.832;4.462;2023-04-24T04:21:23;11.68;;;7.28;;
23680;SDS011;62915;50.832;4.462;2023-04-24T04:23:49;12.82;;;7.38;;
23680;SDS011;62915;50.832;4.462;2023-04-24T04:26:15;11.75;;;7.40;;
23680;SDS011;62915;50.832;4.462;2023-04-24T04:28:41;8.45;;;7.32;;
23680;SDS011;62915;50.832;4.462;2023-04-24T04:31:07;9.80;;;7.25;;
23680;SDS011;62915;50.832;4.462;2023-04-24T04:33:36;9.65;;;7.85;;
23680;SDS011;62915;50.832;4.462;2023-04-24T04:36:03;10.25;;;6.80;;
23680;SDS011;62915;50.832;4.462;2023-04-24T04:38:29;8.40;;;7.03;;
23680;SDS011;62915;50.832;4.462;2023-04-24T04:40:55;8.68;;;7.05;;
23680;SDS011;62915;50.832;4.462;2023-04-24T04:43:22;10.80;;;7.38;;
23680;SDS011;62915;50.832;4.462;2023-04-24T04:45:49;8.98;;;6.80;;
23680;SDS011;62915;50.832;4.462;2023-04-24T04:48:16;7.45;;;6.28;;
23680;SDS011;62915;50.832;4.462;2023-04-24T04:50:44;9.63;;;6.38;;
23680;SDS011;62915;50.832;4.462;2023-04-24T04:53:10;8.90;;;6.85;;
23680;SDS011;62915;50.832;4.462;2023-04-24T04:55:36;10.93;;;7.18;;
23680;SDS011;62915;50.832;4.462;2023-04-24T04:58:02;10.00;;;7.35;;
23680;SDS011;62915;50.832;4.462;2023-04-24T05:00:28;11.32;;;7.47;;
23680;SDS011;62915;50.832;4.462;2023-04-24T05:02:58;8.60;;;7.22;;
23680;SDS011;62915;50.832;4.462;2023-04-24T05:05:25;12.00;;;8.15;;
23680;SDS011;62915;50.832;4.462;2023-04-24T05:07:50;11.35;;;10.15;;
23680;SDS011;62915;50.832;4.462;2023-04-24T05:10:16;15.13;;;9.68;;
23680;SDS011;62915;50.832;4.462;2023-04-24T05:12:42;16.50;;;10.32;;
23680;SDS011;62915;50.832;4.462;2023-04-24T05:15:08;18.95;;;11.13;;
23680;SDS011;62915;50.832;4.462;2023-04-24T05:17:34;21.42;;;12.50;;
23680;SDS011;62915;50.832;4.462;2023-04-24T05:20:00;20.58;;;11.48;;
23680;SDS011;62915;50.832;4.462;2023-04-24T05:22:26;17.65;;;11.95;;
23680;SDS011;62915;50.832;4.462;2023-04-24T05:24:52;20.48;;;11.13;;
23680;SDS011;62915;50.832;4.462;2023-04-24T05:27:18;15.02;;;11.27;;
23680;SDS011;62915;50.832;4.462;2023-04-24T05:29:44;14.18;;;11.68;;
23680;SDS011;62915;50.832;4.462;2023-04-24T05:32:10;21.77;;;12.38;;
23680;SDS011;62915;50.832;4.462;2023-04-24T05:34:36;19.58;;;11.30;;
23680;SDS011;62915;50.832;4.462;2023-04-24T05:37:02;18.48;;;12.18;;
23680;SDS011;62915;50.832;4.462;2023-04-24T05:39:28;15.93;;;12.27;;
23680;SDS011;62915;50.832;4.462;2023-04-24T05:41:54;17.42;;;11.55;;
23680;SDS011;62915;50.832;4.462;2023-04-24T05:44:23;20.63;;;12.35;;
23680;SDS011;62915;50.832;4.462;2023-04-24T05:46:48;19.17;;;13.38;;
23680;SDS011;62915;50.832;4.462;2023-04-24T05:49:14;18.02;;;12.07;;
23680;SDS011;62915;50.832;4.462;2023-04-24T05:51:40;17.48;;;12.13;;
23680;SDS011;62915;50.832;4.462;2023-04-24T05:54:06;24.60;;;12.68;;
23680;SDS011;62915;50.832;4.462;2023-04-24T05:56:33;17.50;;;12.80;;
23680;SDS011;62915;50.832;4.462;2023-04-24T05:58:58;20.98;;;12.93;;
23680;SDS011;62915;50.832;4.462;2023-04-24T06:01:24;19.23;;;12.32;;
23680;SDS011;62915;50.832;4.462;2023-04-24T06:03:50;19.35;;;13.02;;
23680;SDS011;62915;50.832;4.462;2023-04-24T06:06:16;22.95;;;12.77;;
23680;SDS011;62915;50.832;4.462;2023-04-24T06:08:42;20.33;;;14.02;;
23680;SDS011;62915;50.832;4.462;2023-04-24T06:11:09;20.23;;;13.77;;
23680;SDS011;62915;50.832;4.462;2023-04-24T06:13:35;20.63;;;13.57;;
23680;SDS011;62915;50.832;4.462;2023-04-24T06:16:01;20.08;;;12.65;;
23680;SDS011;62915;50.832;4.462;2023-04-24T06:18:27;22.65;;;13.65;;
23680;SDS011;62915;50.832;4.462;2023-04-24T06:20:52;18.70;;;12.95;;
23680;SDS011;62915;50.832;4.462;2023-04-24T06:23:20;23.58;;;14.45;;
23680;SDS011;62915;50.832;4.462;2023-04-24T06:25:46;23.05;;;14.50;;
23680;SDS011;62915;50.832;4.462;2023-04-24T06:28:12;16.92;;;12.95;;
23680;SDS011;62915;50.832;4.462;2023-04-24T06:30:38;26.02;;;14.75;;
23680;SDS011;62915;50.832;4.462;2023-04-24T06:33:04;23.45;;;15.27;;
23680;SDS011;62915;50.832;4.462;2023-04-24T06:35:30;22.85;;;15.65;;
23680;SDS011;62915;50.832;4.462;2023-04-24T06:37:55;25.55;;;14.63;;
23680;SDS011;62915;50.832;4.462;2023-04-24T06:40:21;25.67;;;14.65;;
23680;SDS011;62915;50.832;4.462;2023-04-24T06:42:47;23.35;;;14.77;;
23680;SDS011;62915;50.832;4.462;2023-04-24T06:45:13;23.45;;;14.25;;
23680;SDS011;62915;50.832;4.462;2023-04-24T06:47:39;25.33;;;15.18;;
23680;SDS011;62915;50.832;4.462;2023-04-24T06:50:05;26.77;;;15.32;;
23680;SDS011;62915;50.832;4.462;2023-04-24T06:52:31;30.40;;;16.52;;
23680;SDS011;62915;50.832;4.462;2023-04-24T06:55:01;32.25;;;16.77;;
23680;SDS011;62915;50.832;4.462;2023-04-24T06:57:28;23.55;;;15.90;;
23680;SDS011;62915;50.832;4.462;2023-04-24T06:59:54;31.83;;;17.55;;
23680;SDS011;62915;50.832;4.462;2023-04-24T07:02:20;31.95;;;17.75;;
23680;SDS011;62915;50.832;4.462;2023-04-24T07:04:46;31.10;;;16.88;;
23680;SDS011;62915;50.832;4.462;2023-04-24T07:07:13;35.65;;;17.63;;
23680;SDS011;62915;50.832;4.462;2023-04-24T07:09:42;31.38;;;17.38;;
23680;SDS011;62915;50.832;4.462;2023-04-24T07:12:08;32.63;;;17.25;;
23680;SDS011;62915;50.832;4.462;2023-04-24T07:14:35;28.20;;;17.02;;
23680;SDS011;62915;50.832;4.462;2023-04-24T07:17:02;31.65;;;17.75;;
23680;SDS011;62915;50.832;4.462;2023-04-24T07:19:29;25.88;;;17.95;;
23680;SDS011;62915;50.832;4.462;2023-04-24T07:21:54;28.73;;;18.00;;
23680;SDS011;62915;50.832;4.462;2023-04-24T07:24:20;26.98;;;16.67;;
23680;SDS011;62915;50.832;4.462;2023-04-24T07:26:46;32.17;;;17.02;;
23680;SDS011;62915;50.832;4.462;2023-04-24T07:29:12;29.92;;;18.13;;
23680;SDS011;62915;50.832;4.462;2023-04-24T07:31:39;33.35;;;16.55;;
23680;SDS011;62915;50.832;4.462;2023-04-24T07:34:06;31.95;;;16.23;;
23680;SDS011;62915;50.832;4.462;2023-04-24T07:36:31;24.88;;;15.57;;
23680;SDS011;62915;50.832;4.462;2023-04-24T07:38:57;22.85;;;13.70;;
23680;SDS011;62915;50.832;4.462;2023-04-24T07:41:23;20.67;;;13.80;;
23680;SDS011;62915;50.832;4.462;2023-04-24T07:43:49;25.10;;;11.88;;
23680;SDS011;62915;50.832;4.462;2023-04-24T07:46:15;22.00;;;12.52;;
23680;SDS011;62915;50.832;4.462;2023-04-24T07:48:41;13.82;;;10.02;;
23680;SDS011;62915;50.832;4.462;2023-04-24T07:51:06;16.52;;;10.82;;
23680;SDS011;62915;50.832;4.462;2023-04-24T07:53:35;20.08;;;9.82;;
23680;SDS011;62915;50.832;4.462;2023-04-24T07:56:00;16.25;;;10.57;;
23680;SDS011;62915;50.832;4.462;2023-04-24T07:58:26;20.50;;;10.80;;
23680;SDS011;62915;50.832;4.462;2023-04-24T08:00:52;26.77;;;14.02;;
23680;SDS011;62915;50.832;4.462;2023-04-24T08:03:18;21.23;;;14.23;;
23680;SDS011;62915;50.832;4.462;2023-04-24T08:05:45;26.60;;;14.23;;
23680;SDS011;62915;50.832;4.462;2023-04-24T08:08:11;23.35;;;13.55;;
23680;SDS011;62915;50.832;4.462;2023-04-24T08:10:37;22.92;;;13.38;;
23680;SDS011;62915;50.832;4.462;2023-04-24T08:13:02;21.65;;;13.05;;
23680;SDS011;62915;50.832;4.462;2023-04-24T08:15:28;23.67;;;13.50;;
23680;SDS011;62915;50.832;4.462;2023-04-24T08:17:54;23.63;;;12.32;;
23680;SDS011;62915;50.832;4.462;2023-04-24T08:20:20;23.75;;;12.23;;
23680;SDS011;62915;50.832;4.462;2023-04-24T08:22:46;24.08;;;12.20;;
23680;SDS011;62915;50.832;4.462;2023-04-24T08:25:13;22.73;;;12.50;;
23680;SDS011;62915;50.832;4.462;2023-04-24T08:27:39;20.63;;;11.82;;
23680;SDS011;62915;50.832;4.462;2023-04-24T08:30:05;23.10;;;11.10;;
23680;SDS011;62915;50.832;4.462;2023-04-24T08:32:32;22.15;;;11.25;;
23680;SDS011;62915;50.832;4.462;2023-04-24T08:34:58;17.30;;;9.95;;
23680;SDS011;62915;50.832;4.462;2023-04-24T08:37:26;23.88;;;9.77;;
23680;SDS011;62915;50.832;4.462;2023-04-24T08:39:52;19.38;;;10.68;;
23680;SDS011;62915;50.832;4.462;2023-04-24T08:42:19;19.50;;;10.65;;
23680;SDS011;62915;50.832;4.462;2023-04-24T08:44:45;17.38;;;12.25;;
23680;SDS011;62915;50.832;4.462;2023-04-24T08:47:13;21.17;;;10.30;;
23680;SDS011;62915;50.832;4.462;2023-04-24T08:49:40;15.90;;;8.18;;
23680;SDS011;62915;50.832;4.462;2023-04-24T08:52:06;15.95;;;8.18;;
23680;SDS011;62915;50.832;4.462;2023-04-24T08:54:34;18.17;;;8.25;;
23680;SDS011;62915;50.832;4.462;2023-04-24T08:57:00;20.65;;;8.43;;
23680;SDS011;62915;50.832;4.462;2023-04-24T08:59:28;14.68;;;8.18;;
23680;SDS011;62915;50.832;4.462;2023-04-24T09:01:58;13.90;;;7.25;;
23680;SDS011;62915;50.832;4.462;2023-04-24T09:04:25;14.07;;;7.53;;
23680;SDS011;62915;50.832;4.462;2023-04-24T09:06:54;18.83;;;8.32;;
23680;SDS011;62915;50.832;4.462;2023-04-24T09:09:22;13.70;;;7.03;;
23680;SDS011;62915;50.832;4.462;2023-04-24T09:11:49;16.40;;;8.07;;
23680;SDS011;62915;50.832;4.462;2023-04-24T09:14:15;14.95;;;6.55;;
23680;SDS011;62915;50.832;4.462;2023-04-24T09:16:42;13.90;;;6.35;;
23680;SDS011;62915;50.832;4.462;2023-04-24T09:19:08;11.70;;;6.95;;
23680;SDS011;62915;50.832;4.462;2023-04-24T09:21:34;9.63;;;5.75;;
23680;SDS011;62915;50.832;4.462;2023-04-24T09:24:01;15.25;;;5.25;;
23680;SDS011;62915;50.832;4.462;2023-04-24T09:26:36;12.50;;;5.55;;
23680;SDS011;62915;50.832;4.462;2023-04-24T09:29:03;12.48;;;5.68;;
23680;SDS011;62915;50.832;4.462;2023-04-24T09:31:29;12.23;;;5.30;;
23680;SDS011;62915;50.832;4.462;2023-04-24T09:36:29;10.90;;;5.35;;
23680;SDS011;62915;50.832;4.462;2023-04-24T09:38:58;15.20;;;5.63;;
23680;SDS011;62915;50.832;4.462;2023-04-24T09:41:25;12.60;;;5.45;;
23680;SDS011;62915;50.832;4.462;2023-04-24T09:43:53;9.43;;;4.95;;
23680;SDS011;62915;50.832;4.462;2023-04-24T09:46:32;11.95;;;5.28;;
23680;SDS011;62915;50.832;4.462;2023-04-24T09:49:02;17.50;;;5.28;;
23680;SDS011;62915;50.832;4.462;2023-04-24T09:51:34;18.00;;;5.22;;
23680;SDS011;62915;50.832;4.462;2023-04-24T09:54:04;10.18;;;5.20;;
23680;SDS011;62915;50.832;4.462;2023-04-24T09:56:38;7.32;;;3.78;;
23680;SDS011;62915;50.832;4.462;2023-04-24T09:59:09;12.98;;;4.93;;
23680;SDS011;62915;50.832;4.462;2023-04-24T10:01:34;11.48;;;4.55;;
23680;SDS011;62915;50.832;4.462;2023-04-24T10:04:01;7.55;;;4.18;;
23680;SDS011;62915;50.832;4.462;2023-04-24T10:06:32;12.82;;;4.88;;
23680;SDS011;62915;50.832;4.462;2023-04-24T10:08:59;8.32;;;4.68;;
23680;SDS011;62915;50.832;4.462;2023-04-24T10:11:29;10.40;;;5.35;;
23680;SDS011;62915;50.832;4.462;2023-04-24T10:13:55;12.40;;;5.28;;
23680;SDS011;62915;50.832;4.462;2023-04-24T10:16:22;10.27;;;5.10;;
23680;SDS011;62915;50.832;4.462;2023-04-24T10:18:51;9.95;;;4.55;;
23680;SDS011;62915;50.832;4.462;2023-04-24T10:21:17;11.95;;;5.15;;
23680;SDS011;62915;50.832;4.462;2023-04-24T10:23:43;10.32;;;4.72;;
23680;SDS011;62915;50.832;4.462;2023-04-24T10:26:14;9.20;;;4.18;;
23680;SDS011;62915;50.832;4.462;2023-04-24T10:28:46;9.07;;;4.65;;
23680;SDS011;62915;50.832;4.462;2023-04-24T10:31:16;11.88;;;5.28;;
23680;SDS011;62915;50.832;4.462;2023-04-24T10:33:46;9.55;;;4.95;;
23680;SDS011;62915;50.832;4.462;2023-04-24T10:36:13;11.25;;;6.15;;
23680;SDS011;62915;50.832;4.462;2023-04-24T10:38:40;10.77;;;4.90;;
23680;SDS011;62915;50.832;4.462;2023-04-24T10:41:09;13.10;;;5.95;;
23680;SDS011;62915;50.832;4.462;2023-04-24T10:43:40;9.75;;;5.57;;
23680;SDS011;62915;50.832;4.462;2023-04-24T10:46:07;9.30;;;5.28;;
23680;SDS011;62915;50.832;4.462;2023-04-24T10:48:35;12.82;;;6.03;;
23680;SDS011;62915;50.832;4.462;2023-04-24T10:51:10;11.30;;;5.72;;
23680;SDS011;62915;50.832;4.462;2023-04-24T10:53:36;10.68;;;5.65;;
23680;SDS011;62915;50.832;4.462;2023-04-24T10:56:06;9.27;;;5.57;;
23680;SDS011;62915;50.832;4.462;2023-04-24T11:01:10;8.43;;;5.00;;
23680;SDS011;62915;50.832;4.462;2023-04-24T11:03:57;10.30;;;5.57;;
23680;SDS011;62915;50.832;4.462;2023-04-24T11:06:28;14.82;;;6.15;;
23680;SDS011;62915;50.832;4.462;2023-04-24T11:09:09;11.98;;;5.25;;
23680;SDS011;62915;50.832;4.462;2023-04-24T11:11:43;10.00;;;5.20;;
23680;SDS011;62915;50.832;4.462;2023-04-24T11:14:10;11.52;;;5.93;;
23680;SDS011;62915;50.832;4.462;2023-04-24T11:21:44;11.05;;;6.15;;
23680;SDS011;62915;50.832;4.462;2023-04-24T11:29:39;13.70;;;6.38;;
23680;SDS011;62915;50.832;4.462;2023-04-24T11:32:18;9.63;;;6.10;;
23680;SDS011;62915;50.832;4.462;2023-04-24T11:34:51;7.43;;;5.63;;
23680;SDS011;62915;50.832;4.462;2023-04-24T11:37:19;11.80;;;6.43;;
23680;SDS011;62915;50.832;4.462;2023-04-24T11:39:45;13.05;;;6.18;;
23680;SDS011;62915;50.832;4.462;2023-04-24T11:42:13;8.20;;;5.50;;
23680;SDS011;62915;50.832;4.462;2023-04-24T11:44:41;9.70;;;5.78;;
23680;SDS011;62915;50.832;4.462;2023-04-24T11:47:08;9.88;;;5.53;;
23680;SDS011;62915;50.832;4.462;2023-04-24T11:49:33;11.20;;;6.13;;
23680;SDS011;62915;50.832;4.462;2023-04-24T11:52:02;6.70;;;5.45;;
23680;SDS011;62915;50.832;4.462;2023-04-24T11:54:28;11.00;;;6.00;;
23680;SDS011;62915;50.832;4.462;2023-04-24T11:59:23;9.30;;;6.55;;
23680;SDS011;62915;50.832;4.462;2023-04-24T12:01:49;9.15;;;5.82;;
23680;SDS011;62915;50.832;4.462;2023-04-24T12:04:16;11.23;;;7.68;;
23680;SDS011;62915;50.832;4.462;2023-04-24T12:09:27;12.07;;;6.75;;
23680;SDS011;62915;50.832;4.462;2023-04-24T12:11:55;10.90;;;7.15;;
23680;SDS011;62915;50.832;4.462;2023-04-24T12:14:24;12.80;;;7.05;;
23680;SDS011;62915;50.832;4.462;2023-04-24T12:16:50;11.60;;;7.35;;
23680;SDS011;62915;50.832;4.462;2023-04-24T12:19:22;9.43;;;6.60;;
23680;SDS011;62915;50.832;4.462;2023-04-24T12:22:02;11.02;;;7.07;;
23680;SDS011;62915;50.832;4.462;2023-04-24T12:24:30;6.80;;;6.07;;
23680;SDS011;62915;50.832;4.462;2023-04-24T12:26:56;10.52;;;7.22;;
23680;SDS011;62915;50.832;4.462;2023-04-24T12:29:23;10.55;;;7.07;;
23680;SDS011;62915;50.832;4.462;2023-04-24T12:31:53;10.38;;;7.15;;
23680;SDS011;62915;50.832;4.462;2023-04-24T12:34:20;11.30;;;6.85;;
23680;SDS011;62915;50.832;4.462;2023-04-24T12:36:48;8.45;;;6.05;;
23680;SDS011;62915;50.832;4.462;2023-04-24T12:39:17;10.73;;;6.40;;
23680;SDS011;62915;50.832;4.462;2023-04-24T12:42:25;11.05;;;6.85;;
23680;SDS011;62915;50.832;4.462;2023-04-24T12:44:37;5.82;;;5.22;;
23680;SDS011;62915;50.832;4.462;2023-04-24T12:47:02;9.98;;;5.07;;
23680;SDS011;62915;50.832;4.462;2023-04-24T12:49:31;12.75;;;4.95;;
23680;SDS011;62915;50.832;4.462;2023-04-24T12:51:57;9.27;;;5.18;;
23680;SDS011;62915;50.832;4.462;2023-04-24T12:54:23;7.15;;;5.22;;
23680;SDS011;62915;50.832;4.462;2023-04-24T12:56:49;9.30;;;4.57;;
23680;SDS011;62915;50.832;4.462;2023-04-24T12:59:15;7.85;;;4.68;;
23680;SDS011;62915;50.832;4.462;2023-04-24T13:01:41;9.23;;;5.18;;
23680;SDS011;62915;50.832;4.462;2023-04-24T13:04:07;8.48;;;4.60;;
23680;SDS011;62915;50.832;4.462;2023-04-24T13:06:32;8.15;;;4.57;;
23680;SDS011;62915;50.832;4.462;2023-04-24T13:08:58;9.13;;;4.45;;
23680;SDS011;62915;50.832;4.462;2023-04-24T13:11:24;7.28;;;4.97;;
23680;SDS011;62915;50.832;4.462;2023-04-24T13:13:50;6.78;;;4.55;;
23680;SDS011;62915;50.832;4.462;2023-04-24T13:16:16;8.77;;;4.80;;
23680;SDS011;62915;50.832;4.462;2023-04-24T13:18:42;5.93;;;4.30;;
23680;SDS011;62915;50.832;4.462;2023-04-24T13:21:08;5.75;;;4.68;;
23680;SDS011;62915;50.832;4.462;2023-04-24T13:23:34;7.85;;;4.13;;
23680;SDS011;62915;50.832;4.462;2023-04-24T13:26:00;10.55;;;4.13;;
23680;SDS011;62915;50.832;4.462;2023-04-24T13:28:26;7.47;;;4.72;;
23680;SDS011;62915;50.832;4.462;2023-04-24T13:30:52;9.55;;;3.80;;
23680;SDS011;62915;50.832;4.462;2023-04-24T13:33:18;7.30;;;4.10;;
23680;SDS011;62915;50.832;4.462;2023-04-24T13:35:44;7.10;;;4.20;;
23680;SDS011;62915;50.832;4.462;2023-04-24T13:38:10;10.32;;;3.80;;
23680;SDS011;62915;50.832;4.462;2023-04-24T13:40:35;8.15;;;3.50;;
23680;SDS011;62915;50.832;4.462;2023-04-24T13:43:02;4.93;;;3.40;;
23680;SDS011;62915;50.832;4.462;2023-04-24T13:45:27;7.50;;;3.30;;
23680;SDS011;62915;50.832;4.462;2023-04-24T13:47:53;7.57;;;3.35;;
23680;SDS011;62915;50.832;4.462;2023-04-24T13:50:19;7.03;;;3.60;;
23680;SDS011;62915;50.832;4.462;2023-04-24T13:52:45;5.65;;;3.35;;
23680;SDS011;62915;50.832;4.462;2023-04-24T13:55:11;5.53;;;3.50;;
23680;SDS011;62915;50.832;4.462;2023-04-24T13:57:37;7.63;;;3.45;;
23680;SDS011;62915;50.832;4.462;2023-04-24T14:00:03;7.43;;;3.67;;
23680;SDS011;62915;50.832;4.462;2023-04-24T14:02:31;6.88;;;3.70;;
23680;SDS011;62915;50.832;4.462;2023-04-24T14:04:56;6.95;;;3.47;;
23680;SDS011;62915;50.832;4.462;2023-04-24T14:07:22;5.50;;;3.13;;
23680;SDS011;62915;50.832;4.462;2023-04-24T14:09:48;5.63;;;3.35;;
23680;SDS011;62915;50.832;4.462;2023-04-24T14:12:14;5.90;;;3.63;;
23680;SDS011;62915;50.832;4.462;2023-04-24T14:14:44;7.07;;;3.33;;
23680;SDS011;62915;50.832;4.462;2023-04-24T14:17:10;5.25;;;3.45;;
23680;SDS011;62915;50.832;4.462;2023-04-24T14:19:36;5.22;;;2.72;;
23680;SDS011;62915;50.832;4.462;2023-04-24T14:22:03;5.13;;;3.17;;
23680;SDS011;62915;50.832;4.462;2023-04-24T14:24:29;6.13;;;3.15;;
23680;SDS011;62915;50.832;4.462;2023-04-24T14:26:54;4.55;;;2.28;;
23680;SDS011;62915;50.832;4.462;2023-04-24T14:29:22;7.25;;;2.53;;
23680;SDS011;62915;50.832;4.462;2023-04-24T14:31:48;5.47;;;2.38;;
23680;SDS011;62915;50.832;4.462;2023-04-24T14:34:13;7.10;;;2.38;;
23680;SDS011;62915;50.832;4.462;2023-04-24T14:36:40;3.53;;;2.38;;
23680;SDS011;62915;50.832;4.462;2023-04-24T14:39:06;3.95;;;2.17;;
23680;SDS011;62915;50.832;4.462;2023-04-24T14:41:33;5.47;;;2.50;;
23680;SDS011;62915;50.832;4.462;2023-04-24T14:44:02;5.22;;;2.20;;
23680;SDS011;62915;50.832;4.462;2023-04-24T14:46:29;6.43;;;2.97;;
23680;SDS011;62915;50.832;4.462;2023-04-24T14:48:56;3.78;;;2.20;;